createdAt,value
2019-05-09T00:06:09.217Z,98668.27
2019-05-09T00:16:14.718Z,98651.63
2019-05-09T00:26:19.559Z,98639.23
2019-05-09T00:36:24.409Z,98625.75
2019-05-09T00:46:34.074Z,98630.52
2019-05-09T00:56:38.706Z,98628.56
2019-05-09T01:06:44.580Z,98618.02
2019-05-09T01:16:49.040Z,98609.78
2019-05-09T01:26:54.157Z,98607.02
2019-05-09T01:37:10.708Z,98593.93
2019-05-09T01:47:15.141Z,98589.42
2019-05-09T01:57:19.746Z,98579.02
2019-05-09T02:07:24.324Z,98573.45
2019-05-09T02:18:00.684Z,98568.02
2019-05-09T02:27:55.336Z,98558.06
2019-05-09T02:37:59.862Z,98551.17
2019-05-09T02:48:04.490Z,98538.05
2019-05-09T02:58:10.629Z,98538.53
2019-05-09T03:08:15.229Z,98530.59
2019-05-09T03:18:19.685Z,98528.97
2019-05-09T03:28:28.294Z,98530.67
2019-05-09T03:38:32.175Z,98527.39
2019-05-09T03:48:38.347Z,98528.14
2019-05-09T03:58:42.986Z,98528.81
2019-05-09T04:08:48.492Z,98527.49
2019-05-09T04:18:53.923Z,98520.81
2019-05-09T04:28:59.609Z,98516.27
2019-05-09T04:39:07.682Z,98514.06
2019-05-09T04:49:12.162Z,98514.81
2019-05-09T04:59:17.900Z,98515.13
2019-05-09T05:09:23.569Z,98509.84
2019-05-09T05:19:31.366Z,98506.95
2019-05-09T05:29:34.290Z,98506.95
2019-05-09T05:39:38.878Z,98509.84
2019-05-09T05:49:44.284Z,98513.94
2019-05-09T05:59:49.125Z,98515.48
2019-05-09T06:09:53.735Z,98514.47
2019-05-09T06:20:00.395Z,98518.06
2019-05-09T06:30:09.369Z,98515.79
2019-05-09T06:40:18.375Z,98521.84
2019-05-09T06:50:23.162Z,98517.53
2019-05-09T07:00:54.190Z,98525.15
2019-05-09T07:10:58.727Z,98525.16
2019-05-09T07:21:03.380Z,98522.68
2019-05-09T07:31:11.692Z,98527.39
2019-05-09T07:41:17.816Z,98522.52
2019-05-09T07:51:23.092Z,98530.87
2019-05-09T08:01:28.156Z,98526.73
2019-05-09T08:11:33.832Z,98530.56
2019-05-09T08:21:38.550Z,98529.34
2019-05-09T08:31:45.480Z,98533.55
2019-05-09T08:41:49.626Z,98533.10
2019-05-09T08:52:10.100Z,98528.77
2019-05-09T09:02:21.618Z,98540.50
2019-05-09T09:12:23.064Z,98531.45
2019-05-09T09:22:14.665Z,98536.49
2019-05-09T09:32:19.383Z,98532.68
2019-05-09T09:42:24.190Z,98530.23
2019-05-09T09:52:30.614Z,98523.16
2019-05-09T10:02:37.866Z,98521.63
2019-05-09T10:12:44.677Z,98525.52
2019-05-09T10:22:58.661Z,98521.19
2019-05-09T10:32:55.476Z,98511.60
2019-05-09T10:43:33.952Z,98513.25
2019-05-09T10:53:25.178Z,98507.61
2019-05-09T11:03:29.694Z,98516.66
2019-05-09T11:13:34.145Z,98508.86
2019-05-09T11:23:39.320Z,98502.48
2019-05-09T11:33:43.980Z,98505.02
2019-05-09T11:43:48.933Z,98493.25
2019-05-09T11:53:53.409Z,98486.31
2019-05-09T12:03:57.979Z,98484.59
2019-05-09T12:14:02.451Z,98472.31
2019-05-09T12:24:09.135Z,98475.43
2019-05-09T12:34:15.021Z,98493.34
2019-05-09T12:44:19.488Z,98480.81
2019-05-09T12:54:24.218Z,98481.45
2019-05-09T13:04:28.841Z,98467.48
2019-05-09T13:14:33.333Z,98477.05
2019-05-09T13:24:38.031Z,98474.13
2019-05-09T13:34:42.735Z,98479.94
2019-05-09T13:44:47.612Z,98477.14
2019-05-09T13:54:52.234Z,98480.17
2019-05-09T14:04:58.394Z,98467.81
2019-05-09T14:15:03.244Z,98462.25
2019-05-09T14:25:11.715Z,98446.34
2019-05-09T14:35:14.686Z,98439.09
2019-05-09T14:45:19.337Z,98455.05
2019-05-09T14:55:23.859Z,98460.13
2019-05-09T15:05:28.323Z,98459.67
2019-05-09T15:15:32.932Z,98461.82
2019-05-09T15:25:38.420Z,98449.45
2019-05-09T15:35:43.072Z,98467.75
2019-05-09T15:45:49.216Z,98485.00
2019-05-09T15:55:53.754Z,98485.00
2019-05-09T16:05:59.412Z,98484.27
2019-05-09T16:16:04.091Z,98492.53
2019-05-09T16:26:08.606Z,98498.00
2019-05-09T16:36:13.205Z,98479.24
2019-05-09T16:46:18.609Z,98479.24
2019-05-09T16:56:23.114Z,98495.95
2019-05-09T17:06:27.683Z,98514.87
2019-05-09T17:16:32.206Z,98513.91
2019-05-09T17:26:37.898Z,98513.68
2019-05-09T17:36:42.861Z,98511.62
2019-05-09T17:46:48.090Z,98514.20
2019-05-09T17:56:52.800Z,98515.86
2019-05-09T18:06:58.723Z,98522.48
2019-05-09T18:17:03.425Z,98520.72
2019-05-09T18:27:08.523Z,98536.11
2019-05-09T18:37:13.214Z,98541.08
2019-05-09T18:47:18.475Z,98548.47
2019-05-09T18:57:23.253Z,98549.12
2019-05-09T19:07:27.948Z,98560.17
2019-05-09T19:17:47.545Z,98560.81
2019-05-09T19:27:52.129Z,98563.13
2019-05-09T19:37:56.709Z,98560.64
2019-05-09T19:48:01.361Z,98549.55
2019-05-09T19:58:06.028Z,98558.42
2019-05-09T20:08:10.699Z,98554.73
2019-05-09T20:18:15.624Z,98552.84
2019-05-09T20:28:20.414Z,98559.64
2019-05-09T20:38:25.240Z,98563.89
2019-05-09T20:48:30.028Z,98564.21
2019-05-09T20:58:34.932Z,98578.75
2019-05-09T21:08:39.668Z,98575.00
2019-05-09T21:18:44.419Z,98588.92
2019-05-09T21:28:49.183Z,98597.41
2019-05-09T21:38:53.700Z,98605.75
2019-05-09T21:48:58.149Z,98609.48
2019-05-09T21:59:02.664Z,98609.48
2019-05-09T22:09:10.311Z,98611.13
2019-05-09T22:19:14.927Z,98605.56
2019-05-09T22:29:19.471Z,98620.25
2019-05-09T22:39:24.146Z,98618.65
2019-05-09T22:49:28.699Z,98611.63
2019-05-09T22:59:33.260Z,98612.70
2019-05-09T23:09:37.802Z,98617.95
2019-05-09T23:19:42.330Z,98611.63
2019-05-09T23:29:46.770Z,98617.73
2019-05-09T23:39:52.891Z,98620.02
2019-05-09T23:49:57.507Z,98621.55
